Etusivu
METAR-TAF:

METAR-TAF

Lentoasemat :

Sheboygan County Memorial Airport

Sheboygan, Wisconsin, Yhdysvallat

Leveyspiiri: 43-46-35N, Pituuspiiri: 087-50-59W, korkeus merenpinnasta: 228 m

Tämänhetkinen sää

Tämä raportti tehtiin 1 tunti ja 10 minuuttia sitten, kello 05.53 UTC
Tuuli 4 kn etelästä/lounaasta
Lämpötila -14°C
Kosteus 72%
Ilmanpaine 1026 hPa
Näkyvyys: 16.1 km
selkeää

METAR: KSBM 130553Z AUTO 20004KT 10SM CLR M14/M18 A3030 RMK AO2 SLP279 T11441183 11122 21144 410781144 56008

Aika: 01:03 (07:03 UTC)


TAF: puuttuu

Säähavainnot ja -ennusteet yli 4000 lentoasemalta (METAR- ja TAF-raportit).

Käytössä olevat sääasemat on merkitty karttaan keltaisilla ja punaisilla pisteillä.

Aseta hiiri pisteen päälle nähdäksesi sääaseman nimen.

Klikkaa sitten nähdäksesi säähavainnot ja -ennusteet.

Kartan vaihtaminen: klikkaa mustalla rastilla varustettuja vihreitä pisteitä, niin voit zoomata sisään; viivalla varustettua vihreää pistettä, niin voit zoomata ulos tai vihreitä nuolia, niin pääset viereisille kartoille.


METAR-TAF: